sensor_id;sensor_type;location;lat;lon;timestamp;temperature;humidity
80210;DHT22;69529;37.974;23.708;2023-05-21T00:01:18;24.00;44.40
80210;DHT22;69529;37.974;23.708;2023-05-21T00:03:45;24.00;44.40
80210;DHT22;69529;37.974;23.708;2023-05-21T00:06:15;24.00;44.40
80210;DHT22;69529;37.974;23.708;2023-05-21T00:08:42;24.00;44.50
80210;DHT22;69529;37.974;23.708;2023-05-21T00:11:10;24.00;44.40
80210;DHT22;69529;37.974;23.708;2023-05-21T00:13:38;24.00;44.30
80210;DHT22;69529;37.974;23.708;2023-05-21T00:16:06;24.10;44.30
80210;DHT22;69529;37.974;23.708;2023-05-21T00:18:36;24.10;43.70
80210;DHT22;69529;37.974;23.708;2023-05-21T00:21:05;24.10;44.30
80210;DHT22;69529;37.974;23.708;2023-05-21T00:23:33;24.10;44.30
80210;DHT22;69529;37.974;23.708;2023-05-21T00:26:02;24.00;44.40
80210;DHT22;69529;37.974;23.708;2023-05-21T00:28:30;24.00;44.50
80210;DHT22;69529;37.974;23.708;2023-05-21T00:30:57;24.00;44.50
80210;DHT22;69529;37.974;23.708;2023-05-21T00:33:25;24.00;44.40
80210;DHT22;69529;37.974;23.708;2023-05-21T00:35:55;24.00;44.40
80210;DHT22;69529;37.974;23.708;2023-05-21T00:38:23;24.00;44.40
80210;DHT22;69529;37.974;23.708;2023-05-21T00:40:52;24.00;44.50
80210;DHT22;69529;37.974;23.708;2023-05-21T00:43:20;24.00;44.70
80210;DHT22;69529;37.974;23.708;2023-05-21T00:45:50;23.90;44.90
80210;DHT22;69529;37.974;23.708;2023-05-21T00:48:20;24.00;45.00
80210;DHT22;69529;37.974;23.708;2023-05-21T00:50:47;24.00;45.00
80210;DHT22;69529;37.974;23.708;2023-05-21T00:53:15;24.00;45.10
80210;DHT22;69529;37.974;23.708;2023-05-21T00:55:45;24.00;45.30
80210;DHT22;69529;37.974;23.708;2023-05-21T00:58:14;24.00;45.40
80210;DHT22;69529;37.974;23.708;2023-05-21T01:00:44;24.00;46.00
80210;DHT22;69529;37.974;23.708;2023-05-21T01:03:12;24.10;45.70
80210;DHT22;69529;37.974;23.708;2023-05-21T01:05:40;24.00;45.90
80210;DHT22;69529;37.974;23.708;2023-05-21T01:08:10;24.00;46.10
80210;DHT22;69529;37.974;23.708;2023-05-21T01:10:38;24.00;46.30
80210;DHT22;69529;37.974;23.708;2023-05-21T01:13:06;24.00;46.60
80210;DHT22;69529;37.974;23.708;2023-05-21T01:15:34;24.00;46.30
80210;DHT22;69529;37.974;23.708;2023-05-21T01:18:03;24.00;46.40
80210;DHT22;69529;37.974;23.708;2023-05-21T01:20:33;24.00;46.30
80210;DHT22;69529;37.974;23.708;2023-05-21T01:23:01;24.00;46.60
80210;DHT22;69529;37.974;23.708;2023-05-21T01:25:29;24.00;46.70
80210;DHT22;69529;37.974;23.708;2023-05-21T01:27:57;24.00;46.90
80210;DHT22;69529;37.974;23.708;2023-05-21T01:30:24;24.00;47.00
80210;DHT22;69529;37.974;23.708;2023-05-21T01:33:08;23.90;47.40
80210;DHT22;69529;37.974;23.708;2023-05-21T01:35:43;24.00;47.60
80210;DHT22;69529;37.974;23.708;2023-05-21T01:38:16;23.90;47.80
80210;DHT22;69529;37.974;23.708;2023-05-21T01:40:54;23.90;47.80
80210;DHT22;69529;37.974;23.708;2023-05-21T01:43:26;23.90;47.90
80210;DHT22;69529;37.974;23.708;2023-05-21T01:45:55;23.90;47.90
80210;DHT22;69529;37.974;23.708;2023-05-21T01:48:26;23.90;48.00
80210;DHT22;69529;37.974;23.708;2023-05-21T01:50:56;23.80;47.80
80210;DHT22;69529;37.974;23.708;2023-05-21T01:53:24;23.90;47.80
80210;DHT22;69529;37.974;23.708;2023-05-21T01:55:54;23.90;47.60
80210;DHT22;69529;37.974;23.708;2023-05-21T01:58:21;23.90;47.90
80210;DHT22;69529;37.974;23.708;2023-05-21T02:00:49;23.90;47.60
80210;DHT22;69529;37.974;23.708;2023-05-21T02:03:18;23.90;47.60
80210;DHT22;69529;37.974;23.708;2023-05-21T02:05:47;24.00;47.90
80210;DHT22;69529;37.974;23.708;2023-05-21T02:08:16;24.00;47.40
80210;DHT22;69529;37.974;23.708;2023-05-21T02:10:45;24.10;47.30
80210;DHT22;69529;37.974;23.708;2023-05-21T02:13:12;24.10;47.10
80210;DHT22;69529;37.974;23.708;2023-05-21T02:15:40;24.10;46.90
80210;DHT22;69529;37.974;23.708;2023-05-21T02:18:08;24.10;47.00
80210;DHT22;69529;37.974;23.708;2023-05-21T02:20:36;24.20;46.80
80210;DHT22;69529;37.974;23.708;2023-05-21T02:23:04;24.20;46.90
80210;DHT22;69529;37.974;23.708;2023-05-21T02:25:32;24.20;47.10
80210;DHT22;69529;37.974;23.708;2023-05-21T02:27:59;24.20;47.30
80210;DHT22;69529;37.974;23.708;2023-05-21T02:30:28;24.10;47.20
80210;DHT22;69529;37.974;23.708;2023-05-21T02:32:55;24.20;47.50
80210;DHT22;69529;37.974;23.708;2023-05-21T02:35:24;24.10;47.80
80210;DHT22;69529;37.974;23.708;2023-05-21T02:37:52;24.20;47.80
80210;DHT22;69529;37.974;23.708;2023-05-21T02:40:22;24.10;47.80
80210;DHT22;69529;37.974;23.708;2023-05-21T02:42:50;24.10;47.80
80210;DHT22;69529;37.974;23.708;2023-05-21T02:45:18;24.10;47.80
80210;DHT22;69529;37.974;23.708;2023-05-21T02:47:46;24.10;47.70
80210;DHT22;69529;37.974;23.708;2023-05-21T02:50:13;24.20;47.80
80210;DHT22;69529;37.974;23.708;2023-05-21T02:52:41;24.20;47.70
80210;DHT22;69529;37.974;23.708;2023-05-21T02:55:09;24.20;47.50
80210;DHT22;69529;37.974;23.708;2023-05-21T02:57:36;24.20;47.30
80210;DHT22;69529;37.974;23.708;2023-05-21T03:00:05;24.20;47.40
80210;DHT22;69529;37.974;23.708;2023-05-21T03:02:34;24.20;47.50
80210;DHT22;69529;37.974;23.708;2023-05-21T03:05:02;24.20;47.50
80210;DHT22;69529;37.974;23.708;2023-05-21T03:07:30;24.20;47.50
80210;DHT22;69529;37.974;23.708;2023-05-21T03:09:58;24.20;47.60
80210;DHT22;69529;37.974;23.708;2023-05-21T03:12:25;24.20;47.30
80210;DHT22;69529;37.974;23.708;2023-05-21T03:14:53;24.30;47.30
80210;DHT22;69529;37.974;23.708;2023-05-21T03:17:21;24.30;47.20
80210;DHT22;69529;37.974;23.708;2023-05-21T03:19:49;24.30;47.10
80210;DHT22;69529;37.974;23.708;2023-05-21T03:22:17;24.30;47.00
80210;DHT22;69529;37.974;23.708;2023-05-21T03:24:45;24.30;47.00
80210;DHT22;69529;37.974;23.708;2023-05-21T03:27:13;24.30;47.00
80210;DHT22;69529;37.974;23.708;2023-05-21T03:29:40;24.30;46.80
80210;DHT22;69529;37.974;23.708;2023-05-21T03:32:08;24.30;47.00
80210;DHT22;69529;37.974;23.708;2023-05-21T03:34:36;24.20;47.00
80210;DHT22;69529;37.974;23.708;2023-05-21T03:37:04;24.20;47.00
80210;DHT22;69529;37.974;23.708;2023-05-21T03:39:32;24.10;47.10
80210;DHT22;69529;37.974;23.708;2023-05-21T03:41:59;24.20;47.00
80210;DHT22;69529;37.974;23.708;2023-05-21T03:44:27;24.10;46.90
80210;DHT22;69529;37.974;23.708;2023-05-21T03:46:56;24.10;47.50
80210;DHT22;69529;37.974;23.708;2023-05-21T03:49:25;24.10;46.90
80210;DHT22;69529;37.974;23.708;2023-05-21T03:51:52;24.20;46.90
80210;DHT22;69529;37.974;23.708;2023-05-21T03:54:20;24.10;46.90
80210;DHT22;69529;37.974;23.708;2023-05-21T03:56:47;24.20;46.90
80210;DHT22;69529;37.974;23.708;2023-05-21T03:59:15;24.10;47.10
80210;DHT22;69529;37.974;23.708;2023-05-21T04:01:43;24.20;47.20
80210;DHT22;69529;37.974;23.708;2023-05-21T04:04:11;24.20;47.20
80210;DHT22;69529;37.974;23.708;2023-05-21T04:06:38;24.20;47.10
80210;DHT22;69529;37.974;23.708;2023-05-21T04:09:07;24.20;47.20
80210;DHT22;69529;37.974;23.708;2023-05-21T04:11:35;24.20;47.30
80210;DHT22;69529;37.974;23.708;2023-05-21T04:14:03;24.10;47.30
80210;DHT22;69529;37.974;23.708;2023-05-21T04:16:30;24.10;47.30
80210;DHT22;69529;37.974;23.708;2023-05-21T04:19:00;24.10;47.60
80210;DHT22;69529;37.974;23.708;2023-05-21T04:21:27;24.20;47.50
80210;DHT22;69529;37.974;23.708;2023-05-21T04:23:55;24.20;47.60
80210;DHT22;69529;37.974;23.708;2023-05-21T04:26:23;24.10;47.30
80210;DHT22;69529;37.974;23.708;2023-05-21T04:28:50;24.20;47.50
80210;DHT22;69529;37.974;23.708;2023-05-21T04:31:20;24.20;47.30
80210;DHT22;69529;37.974;23.708;2023-05-21T04:33:48;24.20;47.30
80210;DHT22;69529;37.974;23.708;2023-05-21T04:36:17;24.30;47.20
80210;DHT22;69529;37.974;23.708;2023-05-21T04:38:44;24.30;47.10
80210;DHT22;69529;37.974;23.708;2023-05-21T04:41:12;24.30;47.20
80210;DHT22;69529;37.974;23.708;2023-05-21T04:43:40;24.30;47.00
80210;DHT22;69529;37.974;23.708;2023-05-21T04:46:09;24.30;47.00
80210;DHT22;69529;37.974;23.708;2023-05-21T04:48:37;24.30;47.00
80210;DHT22;69529;37.974;23.708;2023-05-21T04:51:06;24.40;47.30
80210;DHT22;69529;37.974;23.708;2023-05-21T04:53:34;24.30;47.00
80210;DHT22;69529;37.974;23.708;2023-05-21T04:56:02;24.30;47.10
80210;DHT22;69529;37.974;23.708;2023-05-21T04:58:29;24.30;47.00
80210;DHT22;69529;37.974;23.708;2023-05-21T05:00:59;24.40;47.10
80210;DHT22;69529;37.974;23.708;2023-05-21T05:03:28;24.30;47.00
80210;DHT22;69529;37.974;23.708;2023-05-21T05:05:56;24.40;47.00
80210;DHT22;69529;37.974;23.708;2023-05-21T05:08:23;24.40;46.80
80210;DHT22;69529;37.974;23.708;2023-05-21T05:10:51;24.40;46.80
80210;DHT22;69529;37.974;23.708;2023-05-21T05:13:19;24.40;46.70
80210;DHT22;69529;37.974;23.708;2023-05-21T05:15:47;24.40;46.70
80210;DHT22;69529;37.974;23.708;2023-05-21T05:18:14;24.40;46.60
80210;DHT22;69529;37.974;23.708;2023-05-21T05:20:42;24.40;46.50
80210;DHT22;69529;37.974;23.708;2023-05-21T05:23:10;24.50;46.40
80210;DHT22;69529;37.974;23.708;2023-05-21T05:25:37;24.50;46.20
80210;DHT22;69529;37.974;23.708;2023-05-21T05:28:05;24.60;46.10
80210;DHT22;69529;37.974;23.708;2023-05-21T05:30:32;24.70;46.00
80210;DHT22;69529;37.974;23.708;2023-05-21T05:33:01;24.70;45.90
80210;DHT22;69529;37.974;23.708;2023-05-21T05:35:29;24.80;45.70
80210;DHT22;69529;37.974;23.708;2023-05-21T05:37:57;24.80;45.60
80210;DHT22;69529;37.974;23.708;2023-05-21T05:40:24;24.80;45.50
80210;DHT22;69529;37.974;23.708;2023-05-21T05:42:52;24.90;45.30
80210;DHT22;69529;37.974;23.708;2023-05-21T05:45:20;25.00;45.10
80210;DHT22;69529;37.974;23.708;2023-05-21T05:47:47;25.10;45.10
80210;DHT22;69529;37.974;23.708;2023-05-21T05:50:15;25.10;44.90
80210;DHT22;69529;37.974;23.708;2023-05-21T05:52:42;25.20;44.90
80210;DHT22;69529;37.974;23.708;2023-05-21T05:55:10;25.30;44.80
80210;DHT22;69529;37.974;23.708;2023-05-21T05:57:38;25.30;44.80
80210;DHT22;69529;37.974;23.708;2023-05-21T06:00:06;25.40;44.60
80210;DHT22;69529;37.974;23.708;2023-05-21T06:02:36;25.40;44.30
80210;DHT22;69529;37.974;23.708;2023-05-21T06:05:04;25.50;44.30
80210;DHT22;69529;37.974;23.708;2023-05-21T06:07:32;25.50;44.20
80210;DHT22;69529;37.974;23.708;2023-05-21T06:10:00;25.50;44.20
80210;DHT22;69529;37.974;23.708;2023-05-21T06:12:28;25.40;44.20
80210;DHT22;69529;37.974;23.708;2023-05-21T06:14:55;25.50;44.30
80210;DHT22;69529;37.974;23.708;2023-05-21T06:17:23;25.40;44.20
80210;DHT22;69529;37.974;23.708;2023-05-21T06:19:51;25.40;44.10
80210;DHT22;69529;37.974;23.708;2023-05-21T06:22:18;25.40;44.10
80210;DHT22;69529;37.974;23.708;2023-05-21T06:24:46;25.40;44.20
80210;DHT22;69529;37.974;23.708;2023-05-21T06:27:13;25.40;44.20
80210;DHT22;69529;37.974;23.708;2023-05-21T06:29:41;25.40;44.30
80210;DHT22;69529;37.974;23.708;2023-05-21T06:32:09;25.40;44.30
80210;DHT22;69529;37.974;23.708;2023-05-21T06:34:37;25.30;44.20
80210;DHT22;69529;37.974;23.708;2023-05-21T06:37:04;25.40;44.10
80210;DHT22;69529;37.974;23.708;2023-05-21T06:39:32;25.40;44.10
80210;DHT22;69529;37.974;23.708;2023-05-21T06:42:00;25.50;43.90
80210;DHT22;69529;37.974;23.708;2023-05-21T06:44:27;25.50;44.40
80210;DHT22;69529;37.974;23.708;2023-05-21T06:46:55;25.50;43.60
80210;DHT22;69529;37.974;23.708;2023-05-21T06:49:23;25.50;43.80
80210;DHT22;69529;37.974;23.708;2023-05-21T06:51:50;25.50;43.70
80210;DHT22;69529;37.974;23.708;2023-05-21T06:54:18;25.60;43.60
80210;DHT22;69529;37.974;23.708;2023-05-21T06:56:46;25.60;43.60
80210;DHT22;69529;37.974;23.708;2023-05-21T06:59:14;25.60;43.60
80210;DHT22;69529;37.974;23.708;2023-05-21T07:01:41;25.60;43.50
80210;DHT22;69529;37.974;23.708;2023-05-21T07:04:10;25.60;44.10
80210;DHT22;69529;37.974;23.708;2023-05-21T07:06:38;25.60;43.40
80210;DHT22;69529;37.974;23.708;2023-05-21T07:09:06;25.60;43.50
80210;DHT22;69529;37.974;23.708;2023-05-21T07:11:34;25.70;43.40
80210;DHT22;69529;37.974;23.708;2023-05-21T07:14:01;25.70;43.30
80210;DHT22;69529;37.974;23.708;2023-05-21T07:16:29;25.70;43.30
80210;DHT22;69529;37.974;23.708;2023-05-21T07:18:57;25.70;43.30
80210;DHT22;69529;37.974;23.708;2023-05-21T07:21:24;25.70;43.40
80210;DHT22;69529;37.974;23.708;2023-05-21T07:23:52;25.70;43.30
80210;DHT22;69529;37.974;23.708;2023-05-21T07:26:20;25.70;43.30
80210;DHT22;69529;37.974;23.708;2023-05-21T07:28:47;25.60;43.30
80210;DHT22;69529;37.974;23.708;2023-05-21T07:31:15;25.60;43.50
80210;DHT22;69529;37.974;23.708;2023-05-21T07:33:44;25.60;43.40
80210;DHT22;69529;37.974;23.708;2023-05-21T07:36:11;25.60;43.50
80210;DHT22;69529;37.974;23.708;2023-05-21T07:38:39;25.60;43.50
80210;DHT22;69529;37.974;23.708;2023-05-21T07:41:06;25.50;43.40
80210;DHT22;69529;37.974;23.708;2023-05-21T07:43:35;25.50;43.70
80210;DHT22;69529;37.974;23.708;2023-05-21T07:46:03;25.50;43.70
80210;DHT22;69529;37.974;23.708;2023-05-21T07:48:30;25.50;43.70
80210;DHT22;69529;37.974;23.708;2023-05-21T07:50:58;25.50;43.70
80210;DHT22;69529;37.974;23.708;2023-05-21T07:53:26;25.50;43.60
80210;DHT22;69529;37.974;23.708;2023-05-21T07:55:54;25.50;43.60
80210;DHT22;69529;37.974;23.708;2023-05-21T07:58:22;25.40;43.60
80210;DHT22;69529;37.974;23.708;2023-05-21T08:00:50;25.40;43.60
80210;DHT22;69529;37.974;23.708;2023-05-21T08:03:18;25.40;43.70
80210;DHT22;69529;37.974;23.708;2023-05-21T08:05:46;25.40;44.40
80210;DHT22;69529;37.974;23.708;2023-05-21T08:08:18;25.30;43.70
80210;DHT22;69529;37.974;23.708;2023-05-21T08:10:47;25.30;43.70
80210;DHT22;69529;37.974;23.708;2023-05-21T08:13:16;25.40;44.10
80210;DHT22;69529;37.974;23.708;2023-05-21T08:15:44;25.30;43.60
80210;DHT22;69529;37.974;23.708;2023-05-21T08:18:11;25.30;43.60
80210;DHT22;69529;37.974;23.708;2023-05-21T08:20:39;25.30;43.70
80210;DHT22;69529;37.974;23.708;2023-05-21T08:23:06;25.40;43.80
80210;DHT22;69529;37.974;23.708;2023-05-21T08:25:34;25.40;43.80
80210;DHT22;69529;37.974;23.708;2023-05-21T08:28:02;25.40;43.60
80210;DHT22;69529;37.974;23.708;2023-05-21T08:30:29;25.40;43.50
80210;DHT22;69529;37.974;23.708;2023-05-21T08:32:57;25.40;43.80
80210;DHT22;69529;37.974;23.708;2023-05-21T08:35:25;25.40;43.70
80210;DHT22;69529;37.974;23.708;2023-05-21T08:37:52;25.40;43.70
80210;DHT22;69529;37.974;23.708;2023-05-21T08:40:20;25.40;43.80
80210;DHT22;69529;37.974;23.708;2023-05-21T08:42:48;25.40;43.80
80210;DHT22;69529;37.974;23.708;2023-05-21T08:45:21;25.40;43.80
80210;DHT22;69529;37.974;23.708;2023-05-21T08:47:56;25.40;43.70
80210;DHT22;69529;37.974;23.708;2023-05-21T08:50:26;25.50;43.80
80210;DHT22;69529;37.974;23.708;2023-05-21T08:52:54;25.40;43.70
80210;DHT22;69529;37.974;23.708;2023-05-21T08:55:24;25.50;43.80
80210;DHT22;69529;37.974;23.708;2023-05-21T08:57:53;25.50;43.80
80210;DHT22;69529;37.974;23.708;2023-05-21T09:00:21;25.50;43.80
80210;DHT22;69529;37.974;23.708;2023-05-21T09:02:50;25.50;43.60
80210;DHT22;69529;37.974;23.708;2023-05-21T09:05:22;25.50;43.50
80210;DHT22;69529;37.974;23.708;2023-05-21T09:10:33;25.50;43.50
80210;DHT22;69529;37.974;23.708;2023-05-21T09:13:02;25.50;43.60
80210;DHT22;69529;37.974;23.708;2023-05-21T09:15:30;25.50;43.80
80210;DHT22;69529;37.974;23.708;2023-05-21T09:17:58;25.50;43.90
80210;DHT22;69529;37.974;23.708;2023-05-21T09:20:27;25.50;44.60
80210;DHT22;69529;37.974;23.708;2023-05-21T09:22:55;25.50;43.90
80210;DHT22;69529;37.974;23.708;2023-05-21T09:25:24;25.50;43.90
80210;DHT22;69529;37.974;23.708;2023-05-21T09:27:55;25.50;43.90
80210;DHT22;69529;37.974;23.708;2023-05-21T09:30:23;25.50;44.00
80210;DHT22;69529;37.974;23.708;2023-05-21T09:32:59;25.50;44.10
80210;DHT22;69529;37.974;23.708;2023-05-21T09:35:24;25.50;44.10
80210;DHT22;69529;37.974;23.708;2023-05-21T09:37:52;25.50;44.30
80210;DHT22;69529;37.974;23.708;2023-05-21T09:40:21;25.50;44.90
80210;DHT22;69529;37.974;23.708;2023-05-21T09:42:50;25.50;44.40
80210;DHT22;69529;37.974;23.708;2023-05-21T09:47:49;25.50;44.10
80210;DHT22;69529;37.974;23.708;2023-05-21T09:50:19;25.50;44.10
80210;DHT22;69529;37.974;23.708;2023-05-21T09:52:48;25.50;44.00
80210;DHT22;69529;37.974;23.708;2023-05-21T09:55:21;25.50;44.00
80210;DHT22;69529;37.974;23.708;2023-05-21T09:57:48;25.50;43.90
80210;DHT22;69529;37.974;23.708;2023-05-21T10:00:24;25.50;43.90
80210;DHT22;69529;37.974;23.708;2023-05-21T10:02:55;25.50;43.80
80210;DHT22;69529;37.974;23.708;2023-05-21T10:05:27;25.50;43.80
80210;DHT22;69529;37.974;23.708;2023-05-21T10:08:00;25.50;43.80
80210;DHT22;69529;37.974;23.708;2023-05-21T10:10:30;25.50;43.80
80210;DHT22;69529;37.974;23.708;2023-05-21T10:13:01;25.50;43.90
80210;DHT22;69529;37.974;23.708;2023-05-21T10:15:30;25.50;43.90
80210;DHT22;69529;37.974;23.708;2023-05-21T10:18:00;25.50;43.90
80210;DHT22;69529;37.974;23.708;2023-05-21T10:20:29;25.50;44.00
80210;DHT22;69529;37.974;23.708;2023-05-21T10:22:58;25.50;43.90
80210;DHT22;69529;37.974;23.708;2023-05-21T10:25:26;25.50;44.00
80210;DHT22;69529;37.974;23.708;2023-05-21T10:27:55;25.50;44.00
80210;DHT22;69529;37.974;23.708;2023-05-21T10:30:23;25.50;44.70
80210;DHT22;69529;37.974;23.708;2023-05-21T10:32:52;25.50;44.00
80210;DHT22;69529;37.974;23.708;2023-05-21T10:35:22;25.50;43.90
80210;DHT22;69529;37.974;23.708;2023-05-21T10:37:51;25.50;44.20
80210;DHT22;69529;37.974;23.708;2023-05-21T10:40:19;25.40;44.20
80210;DHT22;69529;37.974;23.708;2023-05-21T10:46:02;25.40;44.40
80210;DHT22;69529;37.974;23.708;2023-05-21T10:48:41;25.40;44.80
80210;DHT22;69529;37.974;23.708;2023-05-21T10:51:21;25.40;45.00
80210;DHT22;69529;37.974;23.708;2023-05-21T10:54:08;25.40;45.10
80210;DHT22;69529;37.974;23.708;2023-05-21T10:56:56;25.40;45.30
80210;DHT22;69529;37.974;23.708;2023-05-21T10:59:39;25.30;45.40
80210;DHT22;69529;37.974;23.708;2023-05-21T11:02:10;25.30;45.60
80210;DHT22;69529;37.974;23.708;2023-05-21T11:04:38;25.30;45.70
80210;DHT22;69529;37.974;23.708;2023-05-21T11:07:08;25.30;45.70
80210;DHT22;69529;37.974;23.708;2023-05-21T11:09:37;25.30;45.80
80210;DHT22;69529;37.974;23.708;2023-05-21T11:12:05;25.20;46.20
80210;DHT22;69529;37.974;23.708;2023-05-21T11:14:37;25.20;46.00
80210;DHT22;69529;37.974;23.708;2023-05-21T11:17:11;25.20;46.10
80210;DHT22;69529;37.974;23.708;2023-05-21T11:19:47;25.20;46.30
80210;DHT22;69529;37.974;23.708;2023-05-21T11:22:22;25.20;46.40
80210;DHT22;69529;37.974;23.708;2023-05-21T11:24:59;25.20;46.60
80210;DHT22;69529;37.974;23.708;2023-05-21T11:27:38;25.10;46.60
80210;DHT22;69529;37.974;23.708;2023-05-21T11:30:08;25.20;46.70
80210;DHT22;69529;37.974;23.708;2023-05-21T11:32:37;25.10;46.60
80210;DHT22;69529;37.974;23.708;2023-05-21T11:35:06;25.10;46.50
80210;DHT22;69529;37.974;23.708;2023-05-21T11:37:34;25.10;47.00
80210;DHT22;69529;37.974;23.708;2023-05-21T11:40:23;25.10;46.40
80210;DHT22;69529;37.974;23.708;2023-05-21T11:42:53;25.20;46.30
80210;DHT22;69529;37.974;23.708;2023-05-21T11:45:23;25.20;46.30
80210;DHT22;69529;37.974;23.708;2023-05-21T11:47:50;25.30;46.70
80210;DHT22;69529;37.974;23.708;2023-05-21T11:50:19;25.30;46.10
80210;DHT22;69529;37.974;23.708;2023-05-21T11:52:48;25.30;46.10
80210;DHT22;69529;37.974;23.708;2023-05-21T11:55:21;25.30;46.00
80210;DHT22;69529;37.974;23.708;2023-05-21T11:57:51;25.30;45.80
80210;DHT22;69529;37.974;23.708;2023-05-21T12:00:19;25.30;45.80
80210;DHT22;69529;37.974;23.708;2023-05-21T12:02:51;25.30;45.70
80210;DHT22;69529;37.974;23.708;2023-05-21T12:05:20;25.30;45.60
80210;DHT22;69529;37.974;23.708;2023-05-21T12:07:49;25.30;45.40
80210;DHT22;69529;37.974;23.708;2023-05-21T12:10:20;25.30;45.30
80210;DHT22;69529;37.974;23.708;2023-05-21T12:12:49;25.40;45.30
80210;DHT22;69529;37.974;23.708;2023-05-21T12:15:17;25.40;45.30
80210;DHT22;69529;37.974;23.708;2023-05-21T12:17:48;25.40;45.10
80210;DHT22;69529;37.974;23.708;2023-05-21T12:20:20;25.40;45.00
80210;DHT22;69529;37.974;23.708;2023-05-21T12:22:48;25.40;44.90
80210;DHT22;69529;37.974;23.708;2023-05-21T12:25:19;25.40;44.90
80210;DHT22;69529;37.974;23.708;2023-05-21T12:27:48;25.40;44.80
80210;DHT22;69529;37.974;23.708;2023-05-21T12:30:18;25.40;44.60
80210;DHT22;69529;37.974;23.708;2023-05-21T12:32:48;25.40;44.60
80210;DHT22;69529;37.974;23.708;2023-05-21T12:35:22;25.40;44.50
80210;DHT22;69529;37.974;23.708;2023-05-21T12:37:50;25.50;44.50
80210;DHT22;69529;37.974;23.708;2023-05-21T12:40:18;25.50;44.30
80210;DHT22;69529;37.974;23.708;2023-05-21T12:42:46;25.50;44.30
80210;DHT22;69529;37.974;23.708;2023-05-21T12:45:14;25.50;44.30
80210;DHT22;69529;37.974;23.708;2023-05-21T12:47:48;25.50;44.40
80210;DHT22;69529;37.974;23.708;2023-05-21T12:50:19;25.50;44.30
80210;DHT22;69529;37.974;23.708;2023-05-21T12:52:47;25.50;44.20
80210;DHT22;69529;37.974;23.708;2023-05-21T12:55:15;25.50;44.30
80210;DHT22;69529;37.974;23.708;2023-05-21T12:57:43;25.40;44.10
80210;DHT22;69529;37.974;23.708;2023-05-21T13:00:11;25.50;44.10
80210;DHT22;69529;37.974;23.708;2023-05-21T13:02:41;25.40;44.00
80210;DHT22;69529;37.974;23.708;2023-05-21T13:05:14;25.40;44.00
80210;DHT22;69529;37.974;23.708;2023-05-21T13:07:39;25.40;43.60
80210;DHT22;69529;37.974;23.708;2023-05-21T13:10:09;25.40;43.60
80210;DHT22;69529;37.974;23.708;2023-05-21T13:12:37;25.40;43.60
80210;DHT22;69529;37.974;23.708;2023-05-21T13:15:06;25.40;43.60
80210;DHT22;69529;37.974;23.708;2023-05-21T13:17:34;25.40;43.60
80210;DHT22;69529;37.974;23.708;2023-05-21T13:20:10;25.40;43.60
80210;DHT22;69529;37.974;23.708;2023-05-21T13:22:46;25.40;43.50
80210;DHT22;69529;37.974;23.708;2023-05-21T13:25:16;25.40;43.50
80210;DHT22;69529;37.974;23.708;2023-05-21T13:27:50;25.40;43.50
80210;DHT22;69529;37.974;23.708;2023-05-21T13:30:19;25.40;43.50
80210;DHT22;69529;37.974;23.708;2023-05-21T13:32:47;25.40;43.50
80210;DHT22;69529;37.974;23.708;2023-05-21T13:35:15;25.40;43.50
80210;DHT22;69529;37.974;23.708;2023-05-21T13:37:43;25.40;43.60
80210;DHT22;69529;37.974;23.708;2023-05-21T13:40:12;25.40;43.60
80210;DHT22;69529;37.974;23.708;2023-05-21T13:42:44;25.30;43.60
80210;DHT22;69529;37.974;23.708;2023-05-21T13:45:13;25.30;43.70
80210;DHT22;69529;37.974;23.708;2023-05-21T13:47:43;25.30;43.70
80210;DHT22;69529;37.974;23.708;2023-05-21T13:50:11;25.30;43.80
80210;DHT22;69529;37.974;23.708;2023-05-21T13:52:39;25.30;43.90
80210;DHT22;69529;37.974;23.708;2023-05-21T13:55:07;25.30;43.80
80210;DHT22;69529;37.974;23.708;2023-05-21T13:57:35;25.30;44.50
80210;DHT22;69529;37.974;23.708;2023-05-21T14:00:03;25.30;43.90
80210;DHT22;69529;37.974;23.708;2023-05-21T14:02:31;25.30;43.90
80210;DHT22;69529;37.974;23.708;2023-05-21T14:04:59;25.30;44.00
80210;DHT22;69529;37.974;23.708;2023-05-21T14:07:27;25.30;43.90
80210;DHT22;69529;37.974;23.708;2023-05-21T14:09:55;25.30;43.80
80210;DHT22;69529;37.974;23.708;2023-05-21T14:12:23;25.20;43.80
80210;DHT22;69529;37.974;23.708;2023-05-21T14:14:52;25.20;43.80
80210;DHT22;69529;37.974;23.708;2023-05-21T14:17:19;25.20;43.80
80210;DHT22;69529;37.974;23.708;2023-05-21T14:19:47;25.20;43.80
80210;DHT22;69529;37.974;23.708;2023-05-21T14:22:15;25.20;43.70
80210;DHT22;69529;37.974;23.708;2023-05-21T14:24:42;25.20;43.60
80210;DHT22;69529;37.974;23.708;2023-05-21T14:27:10;25.20;43.50
80210;DHT22;69529;37.974;23.708;2023-05-21T14:29:37;25.20;43.70
80210;DHT22;69529;37.974;23.708;2023-05-21T14:32:06;25.10;43.60
80210;DHT22;69529;37.974;23.708;2023-05-21T14:34:34;25.10;43.80
80210;DHT22;69529;37.974;23.708;2023-05-21T14:37:01;25.10;43.80
80210;DHT22;69529;37.974;23.708;2023-05-21T14:39:29;25.10;44.00
80210;DHT22;69529;37.974;23.708;2023-05-21T14:41:56;25.10;44.10
80210;DHT22;69529;37.974;23.708;2023-05-21T14:44:25;25.10;44.10
80210;DHT22;69529;37.974;23.708;2023-05-21T14:46:53;25.00;44.10
80210;DHT22;69529;37.974;23.708;2023-05-21T14:49:20;25.10;44.30
80210;DHT22;69529;37.974;23.708;2023-05-21T14:51:48;25.10;44.30
80210;DHT22;69529;37.974;23.708;2023-05-21T14:54:16;25.10;44.50
80210;DHT22;69529;37.974;23.708;2023-05-21T14:56:43;25.00;44.60
80210;DHT22;69529;37.974;23.708;2023-05-21T14:59:11;25.10;44.80
80210;DHT22;69529;37.974;23.708;2023-05-21T15:01:39;25.00;44.80
80210;DHT22;69529;37.974;23.708;2023-05-21T15:04:07;25.00;45.00
80210;DHT22;69529;37.974;23.708;2023-05-21T15:06:35;25.00;45.20
80210;DHT22;69529;37.974;23.708;2023-05-21T15:09:02;25.00;45.30
80210;DHT22;69529;37.974;23.708;2023-05-21T15:11:30;25.00;45.50
80210;DHT22;69529;37.974;23.708;2023-05-21T15:13:59;25.00;45.60
80210;DHT22;69529;37.974;23.708;2023-05-21T15:16:27;24.90;45.80
80210;DHT22;69529;37.974;23.708;2023-05-21T15:18:54;24.90;45.90
80210;DHT22;69529;37.974;23.708;2023-05-21T15:21:22;24.90;46.00
80210;DHT22;69529;37.974;23.708;2023-05-21T15:23:50;25.00;46.10
80210;DHT22;69529;37.974;23.708;2023-05-21T15:26:17;25.00;46.10
80210;DHT22;69529;37.974;23.708;2023-05-21T15:28:45;25.00;46.20
80210;DHT22;69529;37.974;23.708;2023-05-21T15:31:13;25.00;46.30
80210;DHT22;69529;37.974;23.708;2023-05-21T15:33:41;25.00;46.40